Terminal Aerodrome Forecast
Issued by NWS

Home | Current Version | Previous Version | Text Only | Print | Product List | Glossary On
Versions: 1 2 3 4 5 6 7 8 9 10 11 12
000
FTUS46 KSGX 062320
TAFSNA
TAF
KSNA 062320Z 0700/0724 21010KT P6SM SCT035 BKN050
     FM070400 21007KT P6SM SCT030 OVC040
     FM071700 21012KT P6SM SCT035 OVC050=

USA.gov is the U.S. government's official web portal to all federal, state and local government web resources and services.